Airfield :
LOGIN :

Register | Disclaimer

   EN    FR    IT 

 










Legend :    VFR   Marginal VFR   IFR   Intensive IFR   Very Intensive IFR
Visi :
Ceiling :
>= 8 km
>= 3000ft
5 to 8 km
1000 to 3000 ft
1500m to 5 km
500 to 1000 ft
800 to 1500m
200 to 500 ft
< 800m
< 200 ft
Symbols :   Thunderstorms  Fog  Heavy snow  Heavy precipitations  Wind > 20 kt
SIGMETs :     Misc.  Thunderstorms  Icing  Turbulence  Mountain Waves  Volcanic Ashes






- Airport Elevation : 87 ft
- IATA code : FSC


LFKF - Figari

CURRENT METAR :
  • 281530Z AUTO 25013KT CAVOK 25/09 Q1022

EXPIRED METARs :
  • 281500Z AUTO 24012KT 220V290 CAVOK 25/10 Q1022
  • 281430Z AUTO 24011KT 200V270 CAVOK 25/10 Q1022
  • 281400Z AUTO 24011KT 200V280 CAVOK 25/11 Q1023
  • 281330Z AUTO 22011KT 190V250 CAVOK 25/09 Q1023
  • 281300Z AUTO 23010KT CAVOK 25/09 Q1023

TAF TAF LFKF
Valid from the 28 at 03:00 until the 29 at 03:00 UTC


280200Z 2803/2903 VRB03KT CAVOK
TEMPO 2808/2810 26012KT
BECMG 2818/2820 05006KT



MET'MAP, your aeronautical weather chart ! - Copyright ORBIFLY December 2007 - Disclaimer

ORBIFLY MET'MAP TEAM :

Programming & Development : Alexandra Zaïnal
Concept & original design : Baudouin d'Aumeries
Assistance for programming : Marc-Olivier Méhu
Technical & hardware support : Manuel Goepfert

Contact : metmap@orbifly.com




SOURCES & CREDITS :

   NOAA